sensor_id;sensor_type;location;lat;lon;timestamp;P1;durP1;ratioP1;P2;durP2;ratioP2
37777;SDS011;23615;51.506;7.678;2022-10-16T00:01:22;0.55;;;0.50;;
37777;SDS011;23615;51.506;7.678;2022-10-16T00:03:50;1.30;;;0.60;;
37777;SDS011;23615;51.506;7.678;2022-10-16T00:06:17;0.60;;;0.50;;
37777;SDS011;23615;51.506;7.678;2022-10-16T00:08:43;3.13;;;0.65;;
37777;SDS011;23615;51.506;7.678;2022-10-16T00:11:11;0.80;;;0.40;;
37777;SDS011;23615;51.506;7.678;2022-10-16T00:13:42;0.98;;;0.52;;
37777;SDS011;23615;51.506;7.678;2022-10-16T00:16:11;0.82;;;0.30;;
37777;SDS011;23615;51.506;7.678;2022-10-16T00:18:37;0.40;;;0.35;;
37777;SDS011;23615;51.506;7.678;2022-10-16T00:21:07;0.70;;;0.47;;
37777;SDS011;23615;51.506;7.678;2022-10-16T00:23:34;0.43;;;0.40;;
37777;SDS011;23615;51.506;7.678;2022-10-16T00:26:01;0.93;;;0.40;;
37777;SDS011;23615;51.506;7.678;2022-10-16T00:28:28;0.60;;;0.40;;
37777;SDS011;23615;51.506;7.678;2022-10-16T00:30:53;0.55;;;0.40;;
37777;SDS011;23615;51.506;7.678;2022-10-16T00:33:19;0.70;;;0.40;;
37777;SDS011;23615;51.506;7.678;2022-10-16T00:35:45;1.67;;;0.40;;
37777;SDS011;23615;51.506;7.678;2022-10-16T00:38:10;0.33;;;0.33;;
37777;SDS011;23615;51.506;7.678;2022-10-16T00:40:36;0.70;;;0.67;;
37777;SDS011;23615;51.506;7.678;2022-10-16T00:43:02;0.50;;;0.40;;
37777;SDS011;23615;51.506;7.678;2022-10-16T00:45:27;0.93;;;0.33;;
37777;SDS011;23615;51.506;7.678;2022-10-16T00:47:53;0.77;;;0.33;;
37777;SDS011;23615;51.506;7.678;2022-10-16T00:52:51;0.85;;;0.57;;
37777;SDS011;23615;51.506;7.678;2022-10-16T00:55:17;0.57;;;0.47;;
37777;SDS011;23615;51.506;7.678;2022-10-16T00:57:44;1.38;;;0.60;;
37777;SDS011;23615;51.506;7.678;2022-10-16T01:00:11;1.52;;;0.68;;
37777;SDS011;23615;51.506;7.678;2022-10-16T01:02:38;1.40;;;0.95;;
37777;SDS011;23615;51.506;7.678;2022-10-16T01:05:04;1.50;;;0.80;;
37777;SDS011;23615;51.506;7.678;2022-10-16T01:07:39;1.17;;;0.90;;
37777;SDS011;23615;51.506;7.678;2022-10-16T01:10:33;1.50;;;0.60;;
37777;SDS011;23615;51.506;7.678;2022-10-16T01:13:06;1.30;;;0.70;;
37777;SDS011;23615;51.506;7.678;2022-10-16T01:18:08;0.63;;;0.57;;
37777;SDS011;23615;51.506;7.678;2022-10-16T01:20:51;0.55;;;0.50;;
37777;SDS011;23615;51.506;7.678;2022-10-16T01:23:22;1.02;;;0.43;;
37777;SDS011;23615;51.506;7.678;2022-10-16T01:26:20;0.40;;;0.30;;
37777;SDS011;23615;51.506;7.678;2022-10-16T01:31:49;1.25;;;0.50;;
37777;SDS011;23615;51.506;7.678;2022-10-16T01:34:25;0.70;;;0.32;;
37777;SDS011;23615;51.506;7.678;2022-10-16T01:36:59;1.15;;;0.52;;
37777;SDS011;23615;51.506;7.678;2022-10-16T01:39:31;0.40;;;0.40;;
37777;SDS011;23615;51.506;7.678;2022-10-16T01:42:05;0.65;;;0.30;;
37777;SDS011;23615;51.506;7.678;2022-10-16T01:44:34;1.27;;;0.60;;
37777;SDS011;23615;51.506;7.678;2022-10-16T01:47:02;0.60;;;0.40;;
37777;SDS011;23615;51.506;7.678;2022-10-16T01:49:32;0.50;;;0.40;;
37777;SDS011;23615;51.506;7.678;2022-10-16T01:52:00;1.10;;;0.30;;
37777;SDS011;23615;51.506;7.678;2022-10-16T01:54:30;0.40;;;0.40;;
37777;SDS011;23615;51.506;7.678;2022-10-16T01:56:58;1.30;;;0.50;;
37777;SDS011;23615;51.506;7.678;2022-10-16T01:59:25;0.57;;;0.43;;
37777;SDS011;23615;51.506;7.678;2022-10-16T02:01:55;0.63;;;0.30;;
37777;SDS011;23615;51.506;7.678;2022-10-16T02:04:30;0.40;;;0.20;;
37777;SDS011;23615;51.506;7.678;2022-10-16T02:06:59;1.20;;;0.30;;
37777;SDS011;23615;51.506;7.678;2022-10-16T02:09:25;0.32;;;0.30;;
37777;SDS011;23615;51.506;7.678;2022-10-16T02:11:52;2.07;;;0.50;;
37777;SDS011;23615;51.506;7.678;2022-10-16T02:14:19;0.30;;;0.30;;
37777;SDS011;23615;51.506;7.678;2022-10-16T02:16:46;0.38;;;0.20;;
37777;SDS011;23615;51.506;7.678;2022-10-16T02:19:12;1.00;;;0.30;;
37777;SDS011;23615;51.506;7.678;2022-10-16T02:21:41;0.75;;;0.40;;
37777;SDS011;23615;51.506;7.678;2022-10-16T02:27:45;1.30;;;0.30;;
37777;SDS011;23615;51.506;7.678;2022-10-16T02:33:07;1.60;;;0.40;;
37777;SDS011;23615;51.506;7.678;2022-10-16T02:35:35;1.45;;;0.50;;
37777;SDS011;23615;51.506;7.678;2022-10-16T02:38:03;0.70;;;0.50;;
37777;SDS011;23615;51.506;7.678;2022-10-16T02:40:29;0.60;;;0.40;;
37777;SDS011;23615;51.506;7.678;2022-10-16T02:42:55;3.30;;;0.30;;
37777;SDS011;23615;51.506;7.678;2022-10-16T02:45:21;1.20;;;0.30;;
37777;SDS011;23615;51.506;7.678;2022-10-16T02:47:47;0.52;;;0.30;;
37777;SDS011;23615;51.506;7.678;2022-10-16T02:50:13;1.20;;;0.40;;
37777;SDS011;23615;51.506;7.678;2022-10-16T02:52:39;1.13;;;0.40;;
37777;SDS011;23615;51.506;7.678;2022-10-16T02:55:04;0.50;;;0.20;;
37777;SDS011;23615;51.506;7.678;2022-10-16T02:57:30;0.30;;;0.27;;
37777;SDS011;23615;51.506;7.678;2022-10-16T02:59:56;0.60;;;0.30;;
37777;SDS011;23615;51.506;7.678;2022-10-16T03:02:21;0.20;;;0.20;;
37777;SDS011;23615;51.506;7.678;2022-10-16T03:04:47;0.43;;;0.30;;
37777;SDS011;23615;51.506;7.678;2022-10-16T03:07:12;1.10;;;0.20;;
37777;SDS011;23615;51.506;7.678;2022-10-16T03:09:37;0.20;;;0.20;;
37777;SDS011;23615;51.506;7.678;2022-10-16T03:12:02;0.10;;;0.10;;
37777;SDS011;23615;51.506;7.678;2022-10-16T03:14:28;0.93;;;0.30;;
37777;SDS011;23615;51.506;7.678;2022-10-16T03:16:53;0.57;;;0.30;;
37777;SDS011;23615;51.506;7.678;2022-10-16T03:19:18;0.20;;;0.20;;
37777;SDS011;23615;51.506;7.678;2022-10-16T03:21:44;0.30;;;0.30;;
37777;SDS011;23615;51.506;7.678;2022-10-16T03:24:10;0.80;;;0.30;;
37777;SDS011;23615;51.506;7.678;2022-10-16T03:26:35;0.50;;;0.30;;
37777;SDS011;23615;51.506;7.678;2022-10-16T03:29:01;0.20;;;0.20;;
37777;SDS011;23615;51.506;7.678;2022-10-16T03:31:28;0.20;;;0.20;;
37777;SDS011;23615;51.506;7.678;2022-10-16T03:33:53;1.30;;;0.30;;
37777;SDS011;23615;51.506;7.678;2022-10-16T03:36:19;0.30;;;0.20;;
37777;SDS011;23615;51.506;7.678;2022-10-16T03:38:44;0.80;;;0.30;;
37777;SDS011;23615;51.506;7.678;2022-10-16T03:41:09;0.30;;;0.30;;
37777;SDS011;23615;51.506;7.678;2022-10-16T03:43:34;1.40;;;0.20;;
37777;SDS011;23615;51.506;7.678;2022-10-16T03:46:00;0.70;;;0.20;;
37777;SDS011;23615;51.506;7.678;2022-10-16T03:48:25;0.20;;;0.20;;
37777;SDS011;23615;51.506;7.678;2022-10-16T03:50:50;0.27;;;0.27;;
37777;SDS011;23615;51.506;7.678;2022-10-16T03:53:16;0.25;;;0.20;;
37777;SDS011;23615;51.506;7.678;2022-10-16T03:55:42;0.40;;;0.20;;
37777;SDS011;23615;51.506;7.678;2022-10-16T03:58:07;0.40;;;0.20;;
37777;SDS011;23615;51.506;7.678;2022-10-16T04:00:33;1.10;;;0.30;;
37777;SDS011;23615;51.506;7.678;2022-10-16T04:02:59;1.00;;;0.30;;
37777;SDS011;23615;51.506;7.678;2022-10-16T04:05:24;0.73;;;0.30;;
37777;SDS011;23615;51.506;7.678;2022-10-16T04:07:50;1.10;;;0.30;;
37777;SDS011;23615;51.506;7.678;2022-10-16T04:10:16;0.80;;;0.20;;
37777;SDS011;23615;51.506;7.678;2022-10-16T04:12:41;0.22;;;0.22;;
37777;SDS011;23615;51.506;7.678;2022-10-16T04:15:07;0.20;;;0.20;;
37777;SDS011;23615;51.506;7.678;2022-10-16T04:17:32;0.63;;;0.10;;
37777;SDS011;23615;51.506;7.678;2022-10-16T04:19:58;0.20;;;0.17;;
37777;SDS011;23615;51.506;7.678;2022-10-16T04:22:23;0.40;;;0.20;;
37777;SDS011;23615;51.506;7.678;2022-10-16T04:24:48;0.80;;;0.30;;
37777;SDS011;23615;51.506;7.678;2022-10-16T04:27:13;0.30;;;0.13;;
37777;SDS011;23615;51.506;7.678;2022-10-16T04:29:39;0.90;;;0.20;;
37777;SDS011;23615;51.506;7.678;2022-10-16T04:32:04;0.60;;;0.30;;
37777;SDS011;23615;51.506;7.678;2022-10-16T04:34:29;1.20;;;0.20;;
37777;SDS011;23615;51.506;7.678;2022-10-16T04:36:55;1.90;;;0.60;;
37777;SDS011;23615;51.506;7.678;2022-10-16T04:39:20;0.10;;;0.10;;
37777;SDS011;23615;51.506;7.678;2022-10-16T04:41:45;0.77;;;0.20;;
37777;SDS011;23615;51.506;7.678;2022-10-16T04:44:11;0.30;;;0.30;;
37777;SDS011;23615;51.506;7.678;2022-10-16T04:46:36;0.50;;;0.10;;
37777;SDS011;23615;51.506;7.678;2022-10-16T04:49:01;1.20;;;0.40;;
37777;SDS011;23615;51.506;7.678;2022-10-16T04:51:26;1.10;;;0.20;;
37777;SDS011;23615;51.506;7.678;2022-10-16T04:53:52;1.20;;;0.20;;
37777;SDS011;23615;51.506;7.678;2022-10-16T04:56:18;0.20;;;0.20;;
37777;SDS011;23615;51.506;7.678;2022-10-16T04:58:43;0.63;;;0.20;;
37777;SDS011;23615;51.506;7.678;2022-10-16T05:01:08;0.30;;;0.20;;
37777;SDS011;23615;51.506;7.678;2022-10-16T05:03:34;0.20;;;0.10;;
37777;SDS011;23615;51.506;7.678;2022-10-16T05:05:59;0.60;;;0.20;;
37777;SDS011;23615;51.506;7.678;2022-10-16T05:08:24;0.20;;;0.13;;
37777;SDS011;23615;51.506;7.678;2022-10-16T05:10:50;0.70;;;0.20;;
37777;SDS011;23615;51.506;7.678;2022-10-16T05:13:15;0.15;;;0.10;;
37777;SDS011;23615;51.506;7.678;2022-10-16T05:15:40;0.60;;;0.10;;
37777;SDS011;23615;51.506;7.678;2022-10-16T05:18:06;0.60;;;0.10;;
37777;SDS011;23615;51.506;7.678;2022-10-16T05:20:31;0.30;;;0.10;;
37777;SDS011;23615;51.506;7.678;2022-10-16T05:22:57;0.60;;;0.10;;
37777;SDS011;23615;51.506;7.678;2022-10-16T05:25:22;0.73;;;0.20;;
37777;SDS011;23615;51.506;7.678;2022-10-16T05:27:48;0.22;;;0.10;;
37777;SDS011;23615;51.506;7.678;2022-10-16T05:30:13;0.57;;;0.20;;
37777;SDS011;23615;51.506;7.678;2022-10-16T05:32:39;0.30;;;0.20;;
37777;SDS011;23615;51.506;7.678;2022-10-16T05:35:04;0.70;;;0.20;;
37777;SDS011;23615;51.506;7.678;2022-10-16T05:37:30;2.10;;;0.60;;
37777;SDS011;23615;51.506;7.678;2022-10-16T05:39:55;1.03;;;0.20;;
37777;SDS011;23615;51.506;7.678;2022-10-16T05:42:20;1.40;;;0.20;;
37777;SDS011;23615;51.506;7.678;2022-10-16T05:44:46;0.20;;;0.10;;
37777;SDS011;23615;51.506;7.678;2022-10-16T05:47:12;0.47;;;0.10;;
37777;SDS011;23615;51.506;7.678;2022-10-16T05:49:38;0.40;;;0.20;;
37777;SDS011;23615;51.506;7.678;2022-10-16T05:52:04;0.83;;;0.20;;
37777;SDS011;23615;51.506;7.678;2022-10-16T05:54:29;0.82;;;0.20;;
37777;SDS011;23615;51.506;7.678;2022-10-16T05:56:54;0.63;;;0.10;;
37777;SDS011;23615;51.506;7.678;2022-10-16T05:59:20;0.73;;;0.10;;
37777;SDS011;23615;51.506;7.678;2022-10-16T06:01:45;1.20;;;0.20;;
37777;SDS011;23615;51.506;7.678;2022-10-16T06:04:10;0.30;;;0.20;;
37777;SDS011;23615;51.506;7.678;2022-10-16T06:06:36;0.85;;;0.10;;
37777;SDS011;23615;51.506;7.678;2022-10-16T06:09:01;0.37;;;0.17;;
37777;SDS011;23615;51.506;7.678;2022-10-16T06:11:28;0.40;;;0.10;;
37777;SDS011;23615;51.506;7.678;2022-10-16T06:13:55;1.55;;;0.20;;
37777;SDS011;23615;51.506;7.678;2022-10-16T06:16:22;0.60;;;0.20;;
37777;SDS011;23615;51.506;7.678;2022-10-16T06:18:50;0.10;;;0.10;;
37777;SDS011;23615;51.506;7.678;2022-10-16T06:21:17;1.98;;;0.20;;
37777;SDS011;23615;51.506;7.678;2022-10-16T06:23:44;2.17;;;0.20;;
37777;SDS011;23615;51.506;7.678;2022-10-16T06:26:11;2.58;;;0.20;;
37777;SDS011;23615;51.506;7.678;2022-10-16T06:28:39;0.80;;;0.30;;
37777;SDS011;23615;51.506;7.678;2022-10-16T06:31:05;0.90;;;0.30;;
37777;SDS011;23615;51.506;7.678;2022-10-16T06:33:32;0.50;;;0.10;;
37777;SDS011;23615;51.506;7.678;2022-10-16T06:36:07;1.00;;;0.10;;
37777;SDS011;23615;51.506;7.678;2022-10-16T06:38:34;1.65;;;0.30;;
37777;SDS011;23615;51.506;7.678;2022-10-16T06:41:00;0.28;;;0.17;;
37777;SDS011;23615;51.506;7.678;2022-10-16T06:43:26;1.70;;;0.10;;
37777;SDS011;23615;51.506;7.678;2022-10-16T06:45:53;1.10;;;0.30;;
37777;SDS011;23615;51.506;7.678;2022-10-16T06:48:20;0.68;;;0.20;;
37777;SDS011;23615;51.506;7.678;2022-10-16T06:53:29;0.65;;;0.10;;
37777;SDS011;23615;51.506;7.678;2022-10-16T06:55:56;1.70;;;0.20;;
37777;SDS011;23615;51.506;7.678;2022-10-16T06:58:21;0.75;;;0.22;;
37777;SDS011;23615;51.506;7.678;2022-10-16T07:00:47;1.00;;;0.10;;
37777;SDS011;23615;51.506;7.678;2022-10-16T07:03:13;0.50;;;0.20;;
37777;SDS011;23615;51.506;7.678;2022-10-16T07:05:42;1.50;;;0.40;;
37777;SDS011;23615;51.506;7.678;2022-10-16T07:08:08;1.52;;;0.20;;
37777;SDS011;23615;51.506;7.678;2022-10-16T07:10:34;1.10;;;0.17;;
37777;SDS011;23615;51.506;7.678;2022-10-16T07:12:59;1.20;;;0.20;;
37777;SDS011;23615;51.506;7.678;2022-10-16T07:15:25;0.30;;;0.20;;
37777;SDS011;23615;51.506;7.678;2022-10-16T07:17:50;2.10;;;0.20;;
37777;SDS011;23615;51.506;7.678;2022-10-16T07:20:16;0.50;;;0.20;;
37777;SDS011;23615;51.506;7.678;2022-10-16T07:22:41;1.40;;;0.20;;
37777;SDS011;23615;51.506;7.678;2022-10-16T07:25:06;0.40;;;0.13;;
37777;SDS011;23615;51.506;7.678;2022-10-16T07:27:32;0.20;;;0.10;;
37777;SDS011;23615;51.506;7.678;2022-10-16T07:29:57;1.43;;;0.30;;
37777;SDS011;23615;51.506;7.678;2022-10-16T07:32:23;0.20;;;0.20;;
37777;SDS011;23615;51.506;7.678;2022-10-16T07:34:50;0.40;;;0.10;;
37777;SDS011;23615;51.506;7.678;2022-10-16T07:37:15;2.50;;;0.40;;
37777;SDS011;23615;51.506;7.678;2022-10-16T07:39:41;0.53;;;0.20;;
37777;SDS011;23615;51.506;7.678;2022-10-16T07:42:06;0.80;;;0.22;;
37777;SDS011;23615;51.506;7.678;2022-10-16T07:44:32;1.00;;;0.20;;
37777;SDS011;23615;51.506;7.678;2022-10-16T07:46:57;1.97;;;0.40;;
37777;SDS011;23615;51.506;7.678;2022-10-16T07:49:23;1.33;;;0.20;;
37777;SDS011;23615;51.506;7.678;2022-10-16T07:51:48;0.33;;;0.23;;
37777;SDS011;23615;51.506;7.678;2022-10-16T07:54:13;0.70;;;0.20;;
37777;SDS011;23615;51.506;7.678;2022-10-16T07:56:38;1.07;;;0.30;;
37777;SDS011;23615;51.506;7.678;2022-10-16T07:59:04;0.90;;;0.20;;
37777;SDS011;23615;51.506;7.678;2022-10-16T08:01:29;0.40;;;0.40;;
37777;SDS011;23615;51.506;7.678;2022-10-16T08:03:54;1.30;;;0.20;;
37777;SDS011;23615;51.506;7.678;2022-10-16T08:06:20;1.50;;;0.20;;
37777;SDS011;23615;51.506;7.678;2022-10-16T08:08:47;1.60;;;0.20;;
37777;SDS011;23615;51.506;7.678;2022-10-16T08:11:12;1.50;;;0.10;;
37777;SDS011;23615;51.506;7.678;2022-10-16T08:13:39;3.10;;;0.30;;
37777;SDS011;23615;51.506;7.678;2022-10-16T08:16:05;1.02;;;0.30;;
37777;SDS011;23615;51.506;7.678;2022-10-16T08:18:35;0.75;;;0.40;;
37777;SDS011;23615;51.506;7.678;2022-10-16T08:21:01;0.85;;;0.30;;
37777;SDS011;23615;51.506;7.678;2022-10-16T08:23:27;0.98;;;0.20;;
37777;SDS011;23615;51.506;7.678;2022-10-16T08:25:53;1.63;;;0.30;;
37777;SDS011;23615;51.506;7.678;2022-10-16T08:28:19;0.70;;;0.20;;
37777;SDS011;23615;51.506;7.678;2022-10-16T08:30:45;2.47;;;0.80;;
37777;SDS011;23615;51.506;7.678;2022-10-16T08:33:11;1.50;;;0.50;;
37777;SDS011;23615;51.506;7.678;2022-10-16T08:35:36;0.97;;;0.27;;
37777;SDS011;23615;51.506;7.678;2022-10-16T08:38:04;0.70;;;0.23;;
37777;SDS011;23615;51.506;7.678;2022-10-16T08:40:31;1.40;;;0.40;;
37777;SDS011;23615;51.506;7.678;2022-10-16T08:50:56;0.65;;;0.20;;
37777;SDS011;23615;51.506;7.678;2022-10-16T08:53:31;1.33;;;0.40;;
37777;SDS011;23615;51.506;7.678;2022-10-16T08:56:04;1.75;;;0.20;;
37777;SDS011;23615;51.506;7.678;2022-10-16T08:58:30;0.75;;;0.30;;
37777;SDS011;23615;51.506;7.678;2022-10-16T09:00:57;1.08;;;0.30;;
37777;SDS011;23615;51.506;7.678;2022-10-16T09:06:38;1.60;;;0.30;;
37777;SDS011;23615;51.506;7.678;2022-10-16T09:14:45;1.48;;;0.20;;
37777;SDS011;23615;51.506;7.678;2022-10-16T09:17:37;1.42;;;0.32;;
37777;SDS011;23615;51.506;7.678;2022-10-16T09:22:42;1.30;;;0.47;;
37777;SDS011;23615;51.506;7.678;2022-10-16T09:25:18;1.80;;;0.20;;
37777;SDS011;23615;51.506;7.678;2022-10-16T09:27:47;1.47;;;0.60;;
37777;SDS011;23615;51.506;7.678;2022-10-16T09:30:15;0.98;;;0.20;;
37777;SDS011;23615;51.506;7.678;2022-10-16T09:32:43;0.30;;;0.30;;
37777;SDS011;23615;51.506;7.678;2022-10-16T09:35:14;0.87;;;0.20;;
37777;SDS011;23615;51.506;7.678;2022-10-16T09:37:42;0.90;;;0.10;;
37777;SDS011;23615;51.506;7.678;2022-10-16T09:40:23;1.35;;;0.30;;
37777;SDS011;23615;51.506;7.678;2022-10-16T09:42:50;0.73;;;0.10;;
37777;SDS011;23615;51.506;7.678;2022-10-16T09:45:22;0.30;;;0.10;;
37777;SDS011;23615;51.506;7.678;2022-10-16T09:47:48;1.85;;;0.30;;
37777;SDS011;23615;51.506;7.678;2022-10-16T09:50:24;1.10;;;0.20;;
37777;SDS011;23615;51.506;7.678;2022-10-16T09:53:04;1.38;;;0.13;;
37777;SDS011;23615;51.506;7.678;2022-10-16T09:55:31;0.55;;;0.13;;
37777;SDS011;23615;51.506;7.678;2022-10-16T09:57:56;1.77;;;0.20;;
37777;SDS011;23615;51.506;7.678;2022-10-16T10:00:22;0.83;;;0.20;;
37777;SDS011;23615;51.506;7.678;2022-10-16T10:02:49;2.05;;;0.38;;
37777;SDS011;23615;51.506;7.678;2022-10-16T10:05:24;1.55;;;0.20;;
37777;SDS011;23615;51.506;7.678;2022-10-16T10:07:56;1.13;;;0.10;;
37777;SDS011;23615;51.506;7.678;2022-10-16T10:10:24;1.58;;;0.30;;
37777;SDS011;23615;51.506;7.678;2022-10-16T10:12:51;0.80;;;0.10;;
37777;SDS011;23615;51.506;7.678;2022-10-16T10:15:17;0.93;;;0.10;;
37777;SDS011;23615;51.506;7.678;2022-10-16T10:17:50;0.83;;;0.10;;
37777;SDS011;23615;51.506;7.678;2022-10-16T10:20:25;1.95;;;0.20;;
37777;SDS011;23615;51.506;7.678;2022-10-16T10:22:56;0.45;;;0.10;;
37777;SDS011;23615;51.506;7.678;2022-10-16T10:25:26;1.30;;;0.13;;
37777;SDS011;23615;51.506;7.678;2022-10-16T10:28:07;1.00;;;0.10;;
37777;SDS011;23615;51.506;7.678;2022-10-16T10:38:38;0.43;;;0.10;;
37777;SDS011;23615;51.506;7.678;2022-10-16T10:41:57;1.58;;;0.10;;
37777;SDS011;23615;51.506;7.678;2022-10-16T10:55:20;1.08;;;0.00;;
37777;SDS011;23615;51.506;7.678;2022-10-16T11:00:57;1.10;;;0.10;;
37777;SDS011;23615;51.506;7.678;2022-10-16T11:06:18;1.55;;;0.10;;
37777;SDS011;23615;51.506;7.678;2022-10-16T11:08:53;0.93;;;0.10;;
37777;SDS011;23615;51.506;7.678;2022-10-16T11:11:29;0.50;;;0.10;;
37777;SDS011;23615;51.506;7.678;2022-10-16T11:14:04;0.50;;;0.10;;
37777;SDS011;23615;51.506;7.678;2022-10-16T11:16:32;0.98;;;0.20;;
37777;SDS011;23615;51.506;7.678;2022-10-16T11:19:09;1.40;;;0.30;;
37777;SDS011;23615;51.506;7.678;2022-10-16T11:22:01;0.88;;;0.10;;
37777;SDS011;23615;51.506;7.678;2022-10-16T11:24:47;0.60;;;0.10;;
37777;SDS011;23615;51.506;7.678;2022-10-16T11:27:43;0.95;;;0.10;;
37777;SDS011;23615;51.506;7.678;2022-10-16T11:30:16;0.65;;;0.10;;
37777;SDS011;23615;51.506;7.678;2022-10-16T11:33:10;1.00;;;0.10;;
37777;SDS011;23615;51.506;7.678;2022-10-16T11:39:08;1.58;;;0.10;;
37777;SDS011;23615;51.506;7.678;2022-10-16T11:41:49;1.60;;;0.20;;
37777;SDS011;23615;51.506;7.678;2022-10-16T11:47:09;1.20;;;0.10;;
37777;SDS011;23615;51.506;7.678;2022-10-16T11:49:58;1.10;;;0.20;;
37777;SDS011;23615;51.506;7.678;2022-10-16T11:55:14;1.20;;;0.10;;
37777;SDS011;23615;51.506;7.678;2022-10-16T11:57:45;1.52;;;0.10;;
37777;SDS011;23615;51.506;7.678;2022-10-16T12:00:25;0.40;;;0.00;;
37777;SDS011;23615;51.506;7.678;2022-10-16T12:03:28;0.70;;;0.10;;
37777;SDS011;23615;51.506;7.678;2022-10-16T12:06:06;0.80;;;0.10;;
37777;SDS011;23615;51.506;7.678;2022-10-16T12:08:57;0.70;;;0.00;;
37777;SDS011;23615;51.506;7.678;2022-10-16T12:14:03;1.60;;;0.10;;
37777;SDS011;23615;51.506;7.678;2022-10-16T12:16:30;1.33;;;0.00;;
37777;SDS011;23615;51.506;7.678;2022-10-16T12:19:10;1.17;;;0.10;;
37777;SDS011;23615;51.506;7.678;2022-10-16T12:21:40;0.30;;;0.10;;
37777;SDS011;23615;51.506;7.678;2022-10-16T12:24:06;1.35;;;0.08;;
37777;SDS011;23615;51.506;7.678;2022-10-16T12:26:47;0.17;;;0.08;;
37777;SDS011;23615;51.506;7.678;2022-10-16T12:31:47;2.03;;;0.13;;
37777;SDS011;23615;51.506;7.678;2022-10-16T12:34:19;0.57;;;0.10;;
37777;SDS011;23615;51.506;7.678;2022-10-16T12:36:47;0.60;;;0.10;;
37777;SDS011;23615;51.506;7.678;2022-10-16T12:39:23;1.17;;;0.20;;
37777;SDS011;23615;51.506;7.678;2022-10-16T12:42:03;0.88;;;0.10;;
37777;SDS011;23615;51.506;7.678;2022-10-16T12:44:35;0.70;;;0.10;;
37777;SDS011;23615;51.506;7.678;2022-10-16T12:47:01;0.25;;;0.00;;
37777;SDS011;23615;51.506;7.678;2022-10-16T12:49:31;1.60;;;0.20;;
37777;SDS011;23615;51.506;7.678;2022-10-16T12:52:02;0.50;;;0.10;;
37777;SDS011;23615;51.506;7.678;2022-10-16T12:54:35;0.40;;;0.00;;
37777;SDS011;23615;51.506;7.678;2022-10-16T12:59:54;1.20;;;0.00;;
37777;SDS011;23615;51.506;7.678;2022-10-16T13:05:13;3.95;;;0.40;;
37777;SDS011;23615;51.506;7.678;2022-10-16T13:10:55;0.52;;;0.10;;
37777;SDS011;23615;51.506;7.678;2022-10-16T13:16:21;0.20;;;0.00;;
37777;SDS011;23615;51.506;7.678;2022-10-16T13:18:59;0.37;;;0.00;;
37777;SDS011;23615;51.506;7.678;2022-10-16T13:21:39;1.80;;;0.10;;
37777;SDS011;23615;51.506;7.678;2022-10-16T13:24:33;1.27;;;0.25;;
37777;SDS011;23615;51.506;7.678;2022-10-16T13:30:12;1.00;;;0.10;;
37777;SDS011;23615;51.506;7.678;2022-10-16T13:32:44;1.00;;;0.00;;
37777;SDS011;23615;51.506;7.678;2022-10-16T13:35:29;0.70;;;0.00;;
37777;SDS011;23615;51.506;7.678;2022-10-16T13:38:03;0.40;;;0.05;;
37777;SDS011;23615;51.506;7.678;2022-10-16T13:40:47;0.80;;;0.20;;
37777;SDS011;23615;51.506;7.678;2022-10-16T13:43:13;1.00;;;0.10;;
37777;SDS011;23615;51.506;7.678;2022-10-16T13:45:39;0.95;;;0.10;;
37777;SDS011;23615;51.506;7.678;2022-10-16T13:48:05;0.20;;;0.10;;
37777;SDS011;23615;51.506;7.678;2022-10-16T13:50:31;0.25;;;0.05;;
37777;SDS011;23615;51.506;7.678;2022-10-16T13:53:03;0.20;;;0.00;;
37777;SDS011;23615;51.506;7.678;2022-10-16T13:55:29;0.17;;;0.00;;
37777;SDS011;23615;51.506;7.678;2022-10-16T13:58:04;0.25;;;0.03;;
37777;SDS011;23615;51.506;7.678;2022-10-16T14:00:33;0.77;;;0.10;;
37777;SDS011;23615;51.506;7.678;2022-10-16T14:03:01;0.90;;;0.03;;
37777;SDS011;23615;51.506;7.678;2022-10-16T14:05:29;0.35;;;0.08;;
37777;SDS011;23615;51.506;7.678;2022-10-16T14:07:54;1.30;;;0.10;;
37777;SDS011;23615;51.506;7.678;2022-10-16T14:10:22;1.20;;;0.10;;
37777;SDS011;23615;51.506;7.678;2022-10-16T14:12:54;0.08;;;0.00;;
37777;SDS011;23615;51.506;7.678;2022-10-16T14:15:24;0.32;;;0.00;;
37777;SDS011;23615;51.506;7.678;2022-10-16T14:17:50;0.75;;;0.03;;
37777;SDS011;23615;51.506;7.678;2022-10-16T14:20:17;1.33;;;0.10;;
37777;SDS011;23615;51.506;7.678;2022-10-16T14:22:44;0.20;;;0.00;;
37777;SDS011;23615;51.506;7.678;2022-10-16T14:27:44;1.45;;;0.20;;
37777;SDS011;23615;51.506;7.678;2022-10-16T14:30:15;0.20;;;0.00;;
37777;SDS011;23615;51.506;7.678;2022-10-16T14:32:52;2.25;;;0.40;;
37777;SDS011;23615;51.506;7.678;2022-10-16T14:38:00;0.30;;;0.00;;
37777;SDS011;23615;51.506;7.678;2022-10-16T14:40:27;0.50;;;0.10;;
37777;SDS011;23615;51.506;7.678;2022-10-16T14:42:55;0.95;;;0.10;;
37777;SDS011;23615;51.506;7.678;2022-10-16T14:45:26;1.20;;;0.30;;
37777;SDS011;23615;51.506;7.678;2022-10-16T14:47:54;0.50;;;0.08;;
37777;SDS011;23615;51.506;7.678;2022-10-16T14:50:22;0.80;;;0.10;;
37777;SDS011;23615;51.506;7.678;2022-10-16T14:52:47;1.60;;;0.10;;
37777;SDS011;23615;51.506;7.678;2022-10-16T14:55:13;0.50;;;0.00;;
37777;SDS011;23615;51.506;7.678;2022-10-16T14:57:38;0.37;;;0.00;;
37777;SDS011;23615;51.506;7.678;2022-10-16T15:00:18;0.73;;;0.10;;
37777;SDS011;23615;51.506;7.678;2022-10-16T15:02:46;0.25;;;0.00;;
37777;SDS011;23615;51.506;7.678;2022-10-16T15:05:17;1.70;;;0.20;;
37777;SDS011;23615;51.506;7.678;2022-10-16T15:07:47;1.00;;;0.00;;
37777;SDS011;23615;51.506;7.678;2022-10-16T15:10:14;0.35;;;0.10;;
37777;SDS011;23615;51.506;7.678;2022-10-16T15:12:41;0.17;;;0.00;;
37777;SDS011;23615;51.506;7.678;2022-10-16T15:17:58;0.80;;;0.10;;
37777;SDS011;23615;51.506;7.678;2022-10-16T15:20:26;0.50;;;0.00;;
37777;SDS011;23615;51.506;7.678;2022-10-16T15:23:12;0.30;;;0.00;;
37777;SDS011;23615;51.506;7.678;2022-10-16T15:25:43;0.40;;;0.00;;
37777;SDS011;23615;51.506;7.678;2022-10-16T15:28:11;0.30;;;0.00;;
37777;SDS011;23615;51.506;7.678;2022-10-16T15:30:37;0.10;;;0.10;;
37777;SDS011;23615;51.506;7.678;2022-10-16T15:33:03;0.13;;;0.08;;
37777;SDS011;23615;51.506;7.678;2022-10-16T15:35:29;0.35;;;0.10;;
37777;SDS011;23615;51.506;7.678;2022-10-16T15:37:55;1.87;;;0.10;;
37777;SDS011;23615;51.506;7.678;2022-10-16T15:40:20;0.20;;;0.10;;
37777;SDS011;23615;51.506;7.678;2022-10-16T15:42:47;0.40;;;0.10;;
37777;SDS011;23615;51.506;7.678;2022-10-16T15:45:14;0.32;;;0.10;;
37777;SDS011;23615;51.506;7.678;2022-10-16T15:47:43;0.77;;;0.10;;
37777;SDS011;23615;51.506;7.678;2022-10-16T15:50:11;0.00;;;0.00;;
37777;SDS011;23615;51.506;7.678;2022-10-16T15:52:37;0.50;;;0.20;;
37777;SDS011;23615;51.506;7.678;2022-10-16T15:55:04;1.90;;;0.30;;
37777;SDS011;23615;51.506;7.678;2022-10-16T15:57:36;0.30;;;0.10;;
37777;SDS011;23615;51.506;7.678;2022-10-16T16:00:06;1.70;;;0.10;;
37777;SDS011;23615;51.506;7.678;2022-10-16T16:02:33;0.40;;;0.10;;
37777;SDS011;23615;51.506;7.678;2022-10-16T16:04:58;0.60;;;0.10;;
37777;SDS011;23615;51.506;7.678;2022-10-16T16:07:23;0.50;;;0.03;;
37777;SDS011;23615;51.506;7.678;2022-10-16T16:09:49;0.50;;;0.20;;
37777;SDS011;23615;51.506;7.678;2022-10-16T16:12:14;1.90;;;0.10;;
37777;SDS011;23615;51.506;7.678;2022-10-16T16:14:39;0.50;;;0.10;;
37777;SDS011;23615;51.506;7.678;2022-10-16T16:17:05;0.70;;;0.30;;
37777;SDS011;23615;51.506;7.678;2022-10-16T16:19:30;0.20;;;0.10;;
37777;SDS011;23615;51.506;7.678;2022-10-16T16:21:56;0.45;;;0.22;;
37777;SDS011;23615;51.506;7.678;2022-10-16T16:24:22;0.50;;;0.20;;
37777;SDS011;23615;51.506;7.678;2022-10-16T16:26:47;0.27;;;0.10;;
37777;SDS011;23615;51.506;7.678;2022-10-16T16:29:13;0.10;;;0.10;;
37777;SDS011;23615;51.506;7.678;2022-10-16T16:31:39;0.30;;;0.10;;
37777;SDS011;23615;51.506;7.678;2022-10-16T16:34:05;1.38;;;0.08;;
37777;SDS011;23615;51.506;7.678;2022-10-16T16:36:31;0.10;;;0.10;;